Create Custom Reports and Graphics: Custom Report

Upper Lake

Current Conditions

10/6/22 10:30 AM (-07:00)
Updated Every 15 Minutes
Temp 70.4 °F   0.3
RH 52 %   1
Dew Pt 52.1 °F   0.3
Wet Bulb 59.5 °F   0.1
Wind Dir SSE | 147 °
Wind Spd 2.0 mph   0.1
Wind Gust 3.7 mph   0.1
BatVolt 13.1 V   0.1
Monthly Rain 0.00 In
Seasonal Rainfall 1.42 In

Today & Yesterday

Midnight to Midnight

10/6/22 10:30 AM (-07:00)
Updated Every 15 Minutes
Daily Max Temp 71.3 °F   0.5
Time of Max Temp 1029
Daily Min Temp 44.7 °F   0.2
Time of Min Temp 0658
Daily Max Wind 3.7 mph   0.3
Time of Max Wind 1016
Max Wind Dir SSE | 155 °
Daily Rain 0.00 In
Daily Leaf Wet Hrs 3.9 hrs   2.5
Yest MaxT 88.5 °F
Yest MinT 44.5 °F
Yest MaxGst 8.9 mph
Yest Rain 0.00 In
Leaf Wet Hrs Yest 1.4 Hours

Last 30 Days

Upper Lake

Daily Data | America/Los_Angeles
as of 10/6/22 10:32 AM PDT
Date Daily Max Temp (°F) Time of Max Temp Daily Min Temp (°F) Time of Min Temp Daily Rain (In) Monthly Rain (In) Seasonal Rainfall (In) Wind Spd (mph) Daily Max Wind (mph) Time of Max Wind Max Wind Dir (°) Dew Pt (°F) Max RH (%) Min RH (%) Hrs <= 32F (hrs) Hrs <= 28F (hrs) Daily Leaf Wet Hrs (hrs) Degree Hrs (hrs) Hrs 70-85F (hrs) Hrs > 95F (hrs) Powdery Mildew Stress (pts) Storm Total (In) Daily Max Rain Intensity (In/Hr) Time of Max Rain Intensity Max 1 Min Rain (In) Max 1 Min Rain Time Max 15 Min Rain (In) Max 15 Min Precip Time Max 60 Min Rain (In) Max 60 Min Rain Time MinBV Day (V)
10/5/22 88.5 1517 44.5 0658 0.00 0.00 1.42 1.2 8.9 1510 ESE | 113 50.0 98 20 0.0 0.0 1.4 155.0 3.10 0.00 80 - - - - - - - - - 12.3
10/4/22 87.9 1523 44.9 0657 0.00 0.00 1.42 1.8 16.4 1716 W | 259 49.2 98 23 0.0 0.0 6.3 149.7 3.34 0.00 90 - - - - - - - - - 12.3
10/3/22 85.2 1529 41.9 0713 0.00 0.00 1.42 1.5 12.5 1839 W | 271 49.9 99 26 0.0 0.0 7.6 128.0 8.55 0.00 100 - - - - - - - - - 12.3
10/2/22 82.0 1512 44.7 0706 0.00 0.00 1.42 1.8 15.8 1459 SSE | 156 51.0 99 30 0.0 0.0 3.8 93.0 7.31 0.00 80 - - - - - - - - - 12.2
10/1/22 87.2 1524 44.2 0719 0.00 0.00 1.42 1.5 12.3 1720 N | 8 48.5 98 19 0.0 0.0 1.4 148.2 3.83 0.00 60 - - - - - - - - - 12.2
9/30/22 86.6 1513 44.6 0728 0.00 1.41 1.42 2.0 11.2 1906 W | 279 47.8 98 19 0.0 0.0 4.2 148.3 4.05 0.00 70 - - - - - - - - - 12.3
9/29/22 83.4 1642 46.0 0732 0.00 1.41 1.42 1.8 11.1 0106 N | 354 51.4 98 25 0.0 0.0 3.0 122.1 9.04 0.00 80 - - - - - - - - - 12.3
9/28/22 79.3 1410 43.2 0704 0.00 1.41 1.42 3.1 22.7 1221 NNW | 347 50.1 96 31 0.0 0.0 0.0 87.5 7.70 0.00 60 - - - - - - - - - 12.4
9/27/22 85.1 1426 43.9 0648 0.00 1.41 1.42 1.8 13.9 1734 W | 272 48.1 99 16 0.0 0.0 5.5 131.1 8.97 0.00 40 - - - - - - - - - 12.3
9/26/22 89.9 1446 47.9 0712 0.00 1.41 1.42 1.6 13.7 1902 W | 277 51.4 98 25 0.0 0.0 0.0 186.4 2.63 0.00 20 - - - - - - - - - 12.3
9/25/22 91.1 1436 44.6 0713 0.00 1.41 1.42 1.3 13.7 1839 NNW | 338 49.2 99 17 0.0 0.0 4.3 189.9 3.06 0.00 30 - - - - - - - - - 12.3
9/24/22 88.8 1612 45.2 0656 0.00 1.41 1.42 1.6 14.9 1853 W | 259 48.7 99 12 0.0 0.0 5.3 172.9 3.42 0.00 40 - - - - - - - - - 12.3
9/23/22 85.4 1600 45.0 0657 0.00 1.41 1.42 1.8 11.2 1431 SSE | 158 50.0 99 22 0.0 0.0 6.9 137.0 8.71 0.00 50 - - - - - - - - - 12.3
9/22/22 76.6 1653 43.9 0625 0.00 1.41 1.42 2.3 12.1 1419 SE | 124 50.3 99 38 0.0 0.0 6.4 72.5 7.43 0.00 30 - - - - - - - - - 12.4
9/21/22 72.3 1448 48.7 0713 0.00 1.41 1.42 2.1 15.4 1625 WNW | 283 51.0 98 41 0.0 0.0 0.0 22.5 0.87 0.00 10 - - - - - - - - - 12.3
9/20/22 69.9 1443 50.4 0530 0.01 1.41 1.42 1.8 13.9 1255 SSE | 160 51.6 98 42 0.0 0.0 7.6 10.4 0.00 0.00 20 1.41 0.01 0644 0.01 0645 0.01 0659 0.01 0744 12.4
9/19/22 70.3 1449 52.6 0003 0.42 1.40 1.41 3.3 18.8 1325 ESE | 114 52.7 96 48 0.0 0.0 8.0 15.4 0.10 0.00 30 1.40 6.00 2036 0.06 2037 0.28 2043 0.35 2128 12.2
9/18/22 61.1 1420 51.7 0223 0.94 0.98 0.99 4.7 34.3 1031 E | 94 52.2 95 70 0.0 0.0 13.8 0.0 0.00 0.00 40 0.98 0.95 1808 0.02 1808 0.07 1822 0.14 0312 12.3
9/17/22 71.9 1317 45.2 0639 0.04 0.04 0.05 2.7 20.6 1252 NNW | 336 46.8 96 38 0.0 0.0 2.1 16.5 0.75 0.00 50 - 0.10 0051 0.01 0101 0.03 0101 0.04 0101 12.3
9/16/22 81.9 1518 43.9 0603 0.00 0.00 0.01 2.4 15.9 1922 WNW | 287 48.3 98 32 0.0 0.0 2.9 107.7 8.46 0.00 60 - - - - - - - - - 12.3
9/15/22 78.1 1545 41.8 0723 0.00 0.00 0.01 2.7 18.3 1803 WNW | 289 47.5 97 36 0.0 0.0 1.6 68.2 6.90 0.00 40 - - - - - - - - - 12.3
9/14/22 75.3 1543 42.9 0647 0.00 0.00 0.01 2.4 17.5 1843 WNW | 297 46.2 96 34 0.0 0.0 2.9 48.6 5.17 0.00 20 - - - - - - - - - 12.3
9/13/22 78.8 1501 50.8 0058 0.00 0.00 0.01 4.0 21.3 1343 NNW | 340 48.8 90 33 0.0 0.0 0.0 66.0 6.52 0.00 30 - - - - - - - - - 12.4
9/12/22 89.9 1527 59.0 0717 0.00 0.00 0.01 2.9 17.1 2012 W | 276 50.3 84 21 0.0 0.0 0.0 188.5 3.24 0.00 10 - - - - - - - - - 12.3
9/11/22 80.0 1707 57.8 0449 0.00 0.00 0.01 1.4 13.9 1850 N | 353 51.2 87 15 0.0 0.0 0.0 138.6 11.11 0.00 20 - - - - - - - - - 12.3
9/10/22 90.5 1512 55.2 0647 0.00 0.00 0.01 1.8 13.0 1536 E | 98 52.0 91 18 0.0 0.0 0.0 188.6 3.73 0.00 0 - - - - - - - - - 12.4
9/9/22 102.2 1413 53.9 0654 0.00 0.00 0.01 1.5 9.6 1337 ESE | 113 54.3 92 15 0.0 0.0 0.0 297.3 2.52 5.28 0 - - - - - - - - - 12.3
9/8/22 104.6 1419 56.5 0648 0.00 0.00 0.01 2.0 14.7 1317 NW | 325 52.0 90 13 0.0 0.0 0.0 371.2 1.52 7.26 0 - - - - - - - - - 12.3
9/7/22 104.4 1636 60.3 0427 0.00 0.00 0.01 2.6 16.6 1459 SE | 134 51.9 79 14 0.0 0.0 0.0 381.6 2.15 7.13 0 - - - - - - - - - 12.3
9/6/22 110.0 1510 57.2 0636 0.00 0.00 0.01 1.8 14.0 1708 SE | 126 51.9 85 10 0.0 0.0 0.0 403.0 3.14 7.86 0 - - - - - - - - - 12.3
Max 110.0 - 60.3 - 0.94 1.41 1.42 4.7 34.3 - - 54.3 99 70 0.0 0.0 13.8 403.0 11.11 7.86 - 1.41 6.00 - 0.06 - 0.28 - 0.35 - 12.4
Avg - - - - - - - 2.2 - - - 50.2 - - 0.0 0.0 - - 4.58 0.92 - 1.26 - - - - - - - - -
Min 61.1 - 41.8 - 0.00 0.00 0.01 1.2 8.9 - - 46.2 79 10 0.0 0.0 0.0 0.0 0.00 0.00 - 0.98 0.01 - 0.01 - 0.01 - 0.01 - 12.2
Total - - - - - - - - - - - - - - 0.0 0.0 - - 137.34 27.52 - - - - - - - - - - -

Last 7 Days

Upper Lake

Hourly Data | America/Los_Angeles
as of 10/6/22 10:32 AM PDT
Date & Time Temp (°F) RH (%) Dew Pt (°F) Wet Bulb (°F) Wind Dir (°) Wind Spd (mph) Wind Gust (mph) Leaf Wet (mins) BatVolt (V) Latest Rain (In) Daily Rain (In) Daily Min Temp (°F) Daily Max Temp (°F) Daily Max Wind (mph) Daily Leaf Wet Hrs (hrs)
10/6/22 - 1000 62.8 65 50.9 56.5 SSE | 151 1.1 2.8 0.0 12.7 0.00 0.00 44.7 67.4 2.8 3.9
10/6/22 - 0900 52.5 93 50.6 52.3 N | 353 0.0 0.9 13.3 12.5 0.00 0.00 44.7 56.6 2.4 3.9
10/6/22 - 0800 45.7 97 44.9 45.8 N | 0 0.1 1.2 60.0 12.4 0.00 0.00 44.7 52.3 2.4 3.6
10/6/22 - 0700 45.8 96 44.8 45.8 N | 9 0.4 2.3 60.0 12.4 0.00 0.00 44.7 52.3 2.4 2.6
10/6/22 - 0600 46.7 96 45.5 46.6 N | 4 0.1 1.5 60.0 12.4 0.00 0.00 46.0 52.3 2.4 1.6
10/6/22 - 0500 47.8 95 46.5 47.7 NNE | 21 0.3 1.5 38.2 12.4 0.00 0.00 46.8 52.3 2.4 0.6
10/6/22 - 0400 49.4 95 47.9 49.3 N | 5 0.2 2.1 0.0 12.4 0.00 0.00 48.4 52.3 2.4 0.0
10/6/22 - 0300 50.4 94 48.8 50.3 N | 7 0.3 2.4 0.0 12.5 0.00 0.00 49.6 52.3 2.4 0.0
10/6/22 - 0200 51.7 93 49.6 51.4 N | 2 0.3 2.1 0.0 12.5 0.00 0.00 51.1 52.3 2.1 0.0
10/6/22 - 0100 53.0 91 50.5 52.5 N | 353 0.6 3.0 0.0 12.5 0.00 0.00 44.5 88.5 8.9 1.4
10/6/22 - 0000 54.9 87 51.2 53.7 NW | 323 0.6 2.4 0.0 12.5 0.00 0.00 44.5 88.5 8.9 1.4
10/5/22 - 2300 57.2 82 51.8 55.0 NNW | 331 0.7 2.3 0.0 12.5 0.00 0.00 44.5 88.5 8.9 1.4
10/5/22 - 2200 60.5 75 52.6 56.8 NW | 324 0.5 2.2 0.0 12.6 0.00 0.00 44.5 88.5 8.9 1.4
10/5/22 - 2100 65.3 67 53.9 59.2 NW | 306 1.2 3.5 0.0 12.6 0.00 0.00 44.5 88.5 8.9 1.4
10/5/22 - 2000 71.7 58 56.0 62.3 W | 280 1.6 7.6 0.0 12.6 0.00 0.00 44.5 88.5 8.9 1.4
10/5/22 - 1900 76.6 50 56.1 63.4 W | 278 2.3 6.9 0.0 12.7 0.00 0.00 44.5 88.5 8.9 1.4
10/5/22 - 1800 79.8 42 54.6 63.2 S | 178 1.4 3.9 0.0 13.1 0.00 0.00 44.5 88.5 8.9 1.4
10/5/22 - 1700 86.9 27 48.7 61.3 SSE | 154 3.8 8.1 0.0 13.0 0.00 0.00 44.5 88.5 8.9 1.4
10/5/22 - 1600 88.1 24 46.6 60.6 SSE | 161 3.3 8.9 0.0 13.0 0.00 0.00 44.5 88.5 8.9 1.4
10/5/22 - 1500 87.2 26 47.6 60.9 S | 170 2.9 7.5 0.0 13.0 0.00 0.00 44.5 88.3 7.5 1.4
10/5/22 - 1400 85.0 30 50.4 61.8 SSE | 155 2.1 6.5 0.0 13.0 0.00 0.00 44.5 86.6 6.5 1.4
10/5/22 - 1300 81.5 37 52.8 62.4 SSE | 158 1.8 6.0 0.0 13.1 0.00 0.00 44.5 83.5 6.0 1.4
10/5/22 - 1200 77.2 43 52.7 61.5 SSE | 157 1.2 5.3 0.0 13.1 0.00 0.00 44.5 79.6 5.3 1.4
10/5/22 - 1100 70.8 53 52.7 60.0 SE | 136 2.2 4.5 0.0 13.1 0.00 0.00 44.5 74.0 4.5 1.4
10/5/22 - 1000 62.9 68 52.2 57.3 SSE | 148 1.1 3.7 0.0 12.7 0.00 0.00 44.5 67.3 3.7 1.4
10/5/22 - 0900 53.5 85 49.0 51.7 E | 97 0.3 2.3 0.0 12.5 0.00 0.00 44.5 58.5 2.3 1.4
10/5/22 - 0800 45.6 96 44.7 45.7 ENE | 57 0.1 1.2 52.7 12.4 0.00 0.00 44.5 50.6 1.9 1.4
10/5/22 - 0700 45.4 96 44.3 45.3 E | 84 0.1 1.8 29.4 12.4 0.00 0.00 44.5 50.6 1.9 0.5
10/5/22 - 0600 46.2 95 44.9 46.0 NE | 41 0.0 0.7 0.0 12.4 0.00 0.00 45.7 50.6 1.9 0.0
10/5/22 - 0500 47.1 94 45.6 46.9 NNE | 29 0.1 1.2 0.0 12.4 0.00 0.00 46.6 50.6 1.9 0.0
10/5/22 - 0400 48.0 94 46.3 47.7 NW | 312 0.2 1.6 0.0 12.4 0.00 0.00 47.3 50.6 1.9 0.0
10/5/22 - 0300 48.8 93 46.9 48.4 WNW | 296 0.4 1.9 0.0 12.5 0.00 0.00 48.3 50.6 1.9 0.0
10/5/22 - 0200 50.0 91 47.5 49.3 WNW | 298 0.0 1.2 0.0 12.5 0.00 0.00 49.4 50.6 1.2 0.0
10/5/22 - 0100 50.9 90 48.2 50.2 N | 10 0.2 2.2 0.0 12.5 0.00 0.00 44.9 87.9 16.4 6.3
10/5/22 - 0000 52.5 86 48.6 51.1 NNE | 28 0.0 1.5 0.0 12.5 0.00 0.00 44.9 87.9 16.4 6.3
10/4/22 - 2300 54.7 82 49.4 52.5 NE | 52 0.2 1.6 0.0 12.6 0.00 0.00 44.9 87.9 16.4 6.3
10/4/22 - 2200 57.0 74 48.8 53.2 NW | 322 0.9 2.2 0.0 12.6 0.00 0.00 44.9 87.9 16.4 6.3
10/4/22 - 2100 61.8 64 49.4 55.3 NW | 323 0.9 3.3 0.0 12.6 0.00 0.00 44.9 87.9 16.4 6.3
10/4/22 - 2000 72.0 44 48.3 57.8 NW | 305 2.1 10.0 0.0 12.6 0.00 0.00 44.9 87.9 16.4 6.3
10/4/22 - 1900 77.8 34 47.1 58.7 WNW | 297 4.2 11.2 0.0 12.7 0.00 0.00 44.9 87.9 16.4 6.3
10/4/22 - 1800 82.4 31 48.8 60.5 WNW | 288 5.7 16.4 0.0 13.1 0.00 0.00 44.9 87.9 16.4 6.3
10/4/22 - 1700 85.3 32 52.0 62.7 WNW | 290 4.9 12.9 0.0 13.0 0.00 0.00 44.9 87.9 13.2 6.3
10/4/22 - 1600 86.7 30 51.3 62.6 W | 273 3.5 13.2 0.0 13.0 0.00 0.00 44.9 87.9 13.2 6.3
10/4/22 - 1500 85.9 27 47.8 60.7 SSE | 154 4.4 10.0 0.0 13.0 0.00 0.00 44.9 86.6 10.0 6.3
10/4/22 - 1400 83.7 31 49.5 61.1 SSE | 152 2.8 7.3 0.0 13.0 0.00 0.00 44.9 85.3 7.3 6.3
10/4/22 - 1300 80.1 39 53.0 62.3 SSE | 150 3.6 7.1 0.0 13.1 0.00 0.00 44.9 82.3 7.1 6.3
10/4/22 - 1200 76.2 45 53.3 61.6 SSE | 149 1.8 4.3 0.0 13.1 0.00 0.00 44.9 79.1 5.2 6.3
10/4/22 - 1100 69.7 58 54.4 60.7 SE | 132 2.0 4.8 0.0 13.2 0.00 0.00 44.9 73.2 5.2 6.3
10/4/22 - 1000 62.5 72 53.2 57.8 SE | 129 1.8 3.8 0.0 12.7 0.00 0.00 44.9 66.6 5.2 6.3
10/4/22 - 0900 52.6 91 50.0 51.9 SE | 124 0.3 2.0 24.6 12.5 0.00 0.00 44.9 57.5 5.2 6.3
10/4/22 - 0800 46.2 97 45.5 46.4 ENE | 74 0.4 2.5 60.0 12.4 0.00 0.00 44.9 51.4 5.2 5.9
10/4/22 - 0700 45.7 96 44.7 45.7 ESE | 108 0.1 1.5 60.0 12.4 0.00 0.00 44.9 51.4 5.2 4.9
10/4/22 - 0600 47.2 97 46.3 47.3 N | 11 0.9 2.6 60.0 12.4 0.00 0.00 46.2 51.4 5.2 3.9
10/4/22 - 0500 47.0 96 45.9 47.0 NNW | 348 0.3 1.9 60.0 12.4 0.00 0.00 46.3 51.4 5.2 2.9
10/4/22 - 0400 48.4 96 47.2 48.4 N | 358 0.3 1.6 60.0 12.4 0.00 0.00 47.6 51.4 5.2 1.9
10/4/22 - 0300 49.6 95 48.4 49.7 NNE | 21 0.6 5.2 52.0 12.5 0.00 0.00 48.9 51.4 5.2 0.9
10/4/22 - 0200 50.5 95 49.2 50.6 NNW | 328 0.2 1.3 0.0 12.5 0.00 0.00 49.4 51.4 1.3 0.0
10/4/22 - 0100 51.7 94 50.0 51.6 NW | 323 0.4 1.8 0.0 12.5 0.00 0.00 41.9 85.2 12.5 7.6
10/4/22 - 0000 53.7 92 51.4 53.4 NW | 319 0.3 3.0 0.0 12.5 0.00 0.00 41.9 85.2 12.5 7.6
10/3/22 - 2300 56.1 88 52.8 55.2 NNE | 19 0.2 2.4 0.0 12.6 0.00 0.00 41.9 85.2 12.5 7.6
10/3/22 - 2200 59.2 82 53.8 57.0 WNW | 303 0.7 3.7 0.0 12.6 0.00 0.00 41.9 85.2 12.5 7.6
10/3/22 - 2100 61.7 78 54.7 58.5 NW | 306 0.8 4.7 0.0 12.6 0.00 0.00 41.9 85.2 12.5 7.6
10/3/22 - 2000 70.1 63 56.5 62.2 WNW | 288 1.5 9.6 0.0 12.6 0.00 0.00 41.9 85.2 12.5 7.6
10/3/22 - 1900 76.0 49 55.7 63.1 WNW | 286 4.4 12.5 0.0 12.7 0.00 0.00 41.9 85.2 12.5 7.6
10/3/22 - 1800 80.3 43 55.8 64.0 WNW | 291 4.5 12.0 0.0 13.1 0.00 0.00 41.9 85.2 12.0 7.6
10/3/22 - 1700 83.1 35 52.9 62.8 WNW | 285 3.9 11.8 0.0 13.1 0.00 0.00 41.9 85.2 11.8 7.6
10/3/22 - 1600 84.0 33 51.7 62.3 WSW | 247 2.8 9.6 0.0 13.0 0.00 0.00 41.9 85.2 10.6 7.6
10/3/22 - 1500 83.6 29 47.8 60.3 SE | 131 3.8 9.4 0.0 13.0 0.00 0.00 41.9 84.5 10.6 7.6
10/3/22 - 1400 81.8 33 50.1 61.0 SE | 125 4.0 10.6 0.0 13.1 0.00 0.00 41.9 82.9 10.6 7.6
10/3/22 - 1300 78.9 38 51.1 61.0 SSE | 167 1.5 4.8 0.0 13.1 0.00 0.00 41.9 82.4 5.3 7.6
10/3/22 - 1200 73.6 44 50.4 59.4 SE | 144 2.2 5.3 0.0 13.1 0.00 0.00 41.9 77.0 5.3 7.6
10/3/22 - 1100 66.6 61 52.8 58.8 SE | 124 2.2 4.7 0.0 13.2 0.00 0.00 41.9 70.2 4.7 7.6
10/3/22 - 1000 59.4 76 51.7 55.8 SSE | 148 1.0 3.5 0.0 12.7 0.00 0.00 41.9 63.2 3.5 7.6
10/3/22 - 0900 51.2 94 49.6 51.1 ESE | 120 0.3 2.4 34.1 12.5 0.00 0.00 41.9 56.2 2.4 7.6
10/3/22 - 0800 43.5 98 42.9 43.6 NE | 53 0.3 2.0 60.0 12.4 0.00 0.00 41.9 48.7 2.0 7.0
10/3/22 - 0700 42.5 97 41.7 42.4 SE | 146 0.0 0.7 60.0 12.4 0.00 0.00 42.0 48.7 1.4 6.0
10/3/22 - 0600 43.8 97 43.0 43.8 SE | 146 0.0 1.1 60.0 12.4 0.00 0.00 42.6 48.7 1.4 5.0
10/3/22 - 0500 44.5 96 43.6 44.4 SE | 144 0.2 1.3 60.0 12.4 0.00 0.00 43.8 48.7 1.4 4.0
10/3/22 - 0400 45.6 96 44.6 45.6 SSE | 148 0.3 1.2 60.0 12.5 0.00 0.00 44.7 48.7 1.4 3.0
10/3/22 - 0300 47.4 96 46.3 47.4 ESE | 118 0.2 1.3 60.0 12.5 0.00 0.00 46.4 48.7 1.4 2.0
10/3/22 - 0200 48.0 95 46.7 48.0 ESE | 123 0.2 1.4 60.0 12.5 0.00 0.00 47.2 48.7 1.4 1.0
10/3/22 - 0100 49.5 95 48.0 49.4 ESE | 118 0.2 1.8 7.9 12.5 0.00 0.00 44.7 82.0 15.8 3.8
10/3/22 - 0000 50.9 94 49.3 50.8 NNE | 32 0.6 2.4 0.0 12.5 0.00 0.00 44.7 82.0 15.8 3.6
10/2/22 - 2300 52.6 92 50.5 52.4 N | 6 0.2 1.5 0.0 12.6 0.00 0.00 44.7 82.0 15.8 3.6
10/2/22 - 2200 55.1 90 52.3 54.5 N | 8 0.2 1.8 0.0 12.6 0.00 0.00 44.7 82.0 15.8 3.6
10/2/22 - 2100 59.5 84 54.5 57.6 N | 353 0.5 2.1 0.0 12.6 0.00 0.00 44.7 82.0 15.8 3.6
10/2/22 - 2000 66.5 68 55.6 60.6 WSW | 256 1.3 5.9 0.0 12.7 0.00 0.00 44.7 82.0 15.8 3.6
10/2/22 - 1900 71.0 59 55.8 62.0 WSW | 248 2.7 8.9 0.0 12.8 0.00 0.00 44.7 82.0 15.8 3.6
10/2/22 - 1800 76.4 49 55.6 63.1 WNW | 284 3.8 10.7 0.0 13.1 0.00 0.00 44.7 82.0 15.8 3.6
10/2/22 - 1700 78.5 45 55.5 63.4 WNW | 284 4.2 10.7 0.0 13.1 0.00 0.00 44.7 82.0 15.8 3.6
10/2/22 - 1600 80.8 37 51.9 61.9 S | 173 6.1 15.1 0.0 13.1 0.00 0.00 44.7 82.0 15.8 3.6
10/2/22 - 1500 80.1 38 52.3 61.9 SE | 139 7.2 15.8 0.0 13.1 0.00 0.00 44.7 81.7 15.8 3.6
10/2/22 - 1400 78.0 41 52.7 61.7 SE | 141 5.4 11.7 0.0 13.1 0.00 0.00 44.7 79.4 11.7 3.6
10/2/22 - 1300 74.6 49 54.1 61.8 SW | 231 2.2 8.3 0.0 13.1 0.00 0.00 44.7 76.5 8.3 3.6
10/2/22 - 1200 70.9 54 53.6 60.6 W | 269 1.9 6.8 0.0 13.1 0.00 0.00 44.7 73.9 6.8 3.6
10/2/22 - 1100 66.1 65 54.1 59.6 SSE | 151 2.3 6.2 0.0 13.2 0.00 0.00 44.7 68.7 6.2 3.6
10/2/22 - 1000 61.4 75 53.3 57.6 ESE | 109 1.0 3.8 0.0 12.7 0.00 0.00 44.7 64.1 3.8 3.6
10/2/22 - 0900 53.2 90 50.2 52.4 ESE | 105 0.5 2.5 3.0 12.5 0.00 0.00 44.7 58.1 3.0 3.6
10/2/22 - 0800 45.9 97 45.1 46.0 SE | 134 0.4 2.6 60.0 12.4 0.00 0.00 44.7 51.5 3.0 3.6
10/2/22 - 0700 45.7 96 44.7 45.7 WSW | 238 0.3 1.5 60.0 12.4 0.00 0.00 45.1 51.5 3.0 2.6
10/2/22 - 0600 46.3 96 45.2 46.3 SE | 126 0.3 2.7 60.0 12.4 0.00 0.00 45.7 51.5 3.0 1.6
10/2/22 - 0500 47.4 96 46.2 47.4 NW | 306 0.2 1.3 34.3 12.4 0.00 0.00 46.8 51.5 3.0 0.6
10/2/22 - 0400 48.3 95 47.0 48.3 WNW | 296 0.3 1.9 0.0 12.4 0.00 0.00 47.7 51.5 3.0 0.0
10/2/22 - 0300 48.9 94 47.4 48.8 WNW | 298 0.3 2.3 0.0 12.5 0.00 0.00 48.0 51.5 3.0 0.0
10/2/22 - 0200 50.5 94 48.8 50.3 WNW | 284 0.3 3.0 0.0 12.5 0.00 0.00 49.8 51.5 3.0 0.0
10/2/22 - 0100 52.0 92 49.8 51.6 NW | 311 0.5 1.6 0.0 12.5 0.00 0.00 44.2 87.2 12.3 1.4
10/2/22 - 0000 53.5 90 50.7 52.9 SW | 229 0.6 2.8 0.0 12.5 0.00 0.00 44.2 87.2 12.3 1.4
10/1/22 - 2300 55.4 85 51.0 53.8 WNW | 286 0.3 2.4 0.0 12.6 0.00 0.00 44.2 87.2 12.3 1.4
10/1/22 - 2200 58.5 80 52.4 55.9 SE | 146 0.1 1.5 0.0 12.6 0.00 0.00 44.2 87.2 12.3 1.4
10/1/22 - 2100 61.8 70 52.1 56.9 N | 9 0.3 1.9 0.0 12.6 0.00 0.00 44.2 87.2 12.3 1.4
10/1/22 - 2000 69.6 59 54.6 60.9 SSW | 198 2.5 8.1 0.0 12.6 0.00 0.00 44.2 87.2 12.3 1.4
10/1/22 - 1900 77.0 45 53.8 62.1 E | 93 3.0 8.4 0.0 12.7 0.00 0.00 44.2 87.2 12.3 1.4
10/1/22 - 1800 82.4 36 52.8 62.6 NNW | 338 3.6 12.3 0.0 13.1 0.00 0.00 44.2 87.2 12.3 1.4
10/1/22 - 1700 84.3 29 48.7 60.9 S | 175 3.2 11.3 0.0 13.1 0.00 0.00 44.2 87.2 11.3 1.4
10/1/22 - 1600 86.6 23 43.9 59.2 SSE | 154 3.5 9.8 0.0 13.0 0.00 0.00 44.2 87.2 10.2 1.4
10/1/22 - 1500 85.5 22 42.7 58.5 SSE | 167 4.0 10.2 0.0 13.0 0.00 0.00 44.2 86.8 10.2 1.4
10/1/22 - 1400 84.1 25 44.7 59.0 SSE | 161 4.3 9.9 0.0 13.1 0.00 0.00 44.2 85.4 9.9 1.4
10/1/22 - 1300 81.1 31 48.0 59.8 SE | 142 3.0 8.3 0.0 13.1 0.00 0.00 44.2 82.9 8.3 1.4
10/1/22 - 1200 76.9 39 49.7 59.8 SSE | 166 1.7 5.6 0.0 13.1 0.00 0.00 44.2 79.5 5.6 1.4
10/1/22 - 1100 70.7 51 51.5 59.2 SSE | 153 1.5 4.4 0.0 13.1 0.00 0.00 44.2 74.0 4.4 1.4
10/1/22 - 1000 63.2 65 51.4 56.9 SSE | 153 1.1 3.2 0.0 12.7 0.00 0.00 44.2 67.4 3.8 1.4
10/1/22 - 0900 53.5 85 48.9 51.7 ESE | 108 0.5 2.6 0.0 12.5 0.00 0.00 44.2 59.0 3.8 1.4
10/1/22 - 0800 45.4 97 44.5 45.4 ENE | 64 0.0 0.9 46.5 12.4 0.00 0.00 44.2 50.4 3.8 1.4
10/1/22 - 0700 45.0 96 43.9 44.9 ENE | 70 0.1 1.3 38.2 12.4 0.00 0.00 44.6 50.4 3.8 0.6
10/1/22 - 0600 45.7 96 44.5 45.6 NNE | 25 0.6 3.8 0.0 12.4 0.00 0.00 44.9 50.4 3.8 0.0
10/1/22 - 0500 46.6 95 45.2 46.4 N | 355 0.3 2.0 0.0 12.4 0.00 0.00 46.0 50.4 2.7 0.0
10/1/22 - 0400 47.5 94 45.9 47.3 N | 1 0.4 2.2 0.0 12.4 0.00 0.00 46.8 50.4 2.7 0.0
10/1/22 - 0300 48.5 93 46.6 48.1 NNW | 334 0.4 2.3 0.0 12.5 0.00 0.00 47.9 50.4 2.7 0.0
10/1/22 - 0200 49.7 92 47.4 49.2 NNW | 335 0.7 2.7 0.0 12.5 0.00 0.00 48.7 50.4 2.7 0.0
10/1/22 - 0100 50.8 90 48.0 50.0 NW | 326 0.6 2.2 0.0 12.5 0.00 0.00 44.6 86.6 11.2 4.2
10/1/22 - 0000 52.9 85 48.6 51.3 NNW | 343 0.6 2.6 0.0 12.5 0.00 0.00 44.6 86.6 11.2 4.2
9/30/22 - 2300 55.5 80 49.3 52.8 NNW | 329 1.3 3.6 0.0 12.6 0.00 0.00 44.6 86.6 11.2 4.2
9/30/22 - 2200 58.7 74 50.3 54.6 NW | 323 0.8 3.2 0.0 12.6 0.00 0.00 44.6 86.6 11.2 4.2
9/30/22 - 2100 68.4 50 48.9 57.1 NNW | 334 1.9 9.2 0.0 12.6 0.00 0.00 44.6 86.6 11.2 4.2
9/30/22 - 2000 75.7 40 49.3 59.3 WNW | 298 3.7 11.2 0.0 12.7 0.00 0.00 44.6 86.6 11.2 4.2
9/30/22 - 1900 72.4 47 50.7 59.2 NW | 314 1.6 6.9 0.0 12.7 0.00 0.00 44.6 86.6 10.6 4.2
9/30/22 - 1800 81.1 34 49.1 60.7 S | 172 1.9 9.6 0.0 13.1 0.00 0.00 44.6 86.6 10.6 4.2
9/30/22 - 1700 85.8 22 42.7 58.5 SSE | 150 5.6 9.2 0.0 13.0 0.00 0.00 44.6 86.6 10.6 4.2
9/30/22 - 1600 86.0 23 43.8 59.0 SE | 144 6.1 10.6 0.0 13.0 0.00 0.00 44.6 86.6 10.6 4.2
9/30/22 - 1500 85.1 24 43.8 58.8 SSE | 148 5.6 10.2 0.0 13.0 0.00 0.00 44.6 86.2 10.2 4.2
9/30/22 - 1400 83.2 27 45.4 59.2 SSE | 155 4.8 8.4 0.0 13.1 0.00 0.00 44.6 84.5 10.0 4.2
9/30/22 - 1300 79.8 35 49.4 60.3 SSE | 149 4.7 10.0 0.0 13.1 0.00 0.00 44.6 81.0 10.0 4.2
9/30/22 - 1200 75.6 44 51.9 60.7 SSE | 148 2.8 5.6 0.0 13.1 0.00 0.00 44.6 77.8 5.6 4.2
9/30/22 - 1100 70.2 49 50.1 58.3 SSE | 161 2.1 4.6 0.0 13.1 0.00 0.00 44.6 73.0 4.6 4.2
9/30/22 - 1000 63.0 60 49.0 55.4 SE | 138 1.3 3.4 0.0 12.7 0.00 0.00 44.6 67.2 3.4 4.2
9/30/22 - 0900 53.4 86 49.2 51.9 ESE | 120 0.4 2.2 13.4 12.5 0.00 0.00 44.6 58.2 3.0 4.2
9/30/22 - 0800 46.0 97 45.2 46.1 E | 86 0.1 1.6 60.0 12.4 0.00 0.00 44.6 52.0 3.0 4.0
9/30/22 - 0700 46.0 97 45.1 46.0 ENE | 64 0.2 1.3 60.0 12.4 0.00 0.00 44.9 52.0 3.0 3.0
9/30/22 - 0600 46.5 96 45.5 46.5 NNW | 341 0.5 2.4 60.0 12.4 0.00 0.00 45.8 52.0 3.0 2.0
9/30/22 - 0500 47.9 96 46.7 47.9 NNW | 338 0.5 2.6 58.6 12.4 0.00 0.00 47.1 52.0 3.0 1.0
9/30/22 - 0400 48.7 95 47.4 48.6 NW | 319 0.6 2.5 0.0 12.5 0.00 0.00 48.1 52.0 3.0 0.0
9/30/22 - 0300 50.3 95 48.9 50.3 SW | 214 0.3 2.1 0.0 12.5 0.00 0.00 49.3 52.0 3.0 0.0
9/30/22 - 0200 50.9 93 49.1 50.7 NNW | 340 0.9 3.0 0.0 12.5 0.00 0.00 49.9 52.0 3.0 0.0
9/30/22 - 0100 52.3 92 50.1 52.0 NNW | 343 0.7 3.0 0.0 12.5 0.00 0.00 46.0 83.4 11.1 3.0
9/30/22 - 0000 54.0 91 51.3 53.4 N | 358 0.8 2.6 0.0 12.5 0.00 0.00 46.0 83.4 11.1 3.0
9/29/22 - 2300 56.0 87 52.3 54.9 NNE | 13 0.5 1.6 0.0 12.6 0.00 0.00 46.0 83.4 11.1 3.0
9/29/22 - 2200 58.3 80 52.3 55.7 NW | 326 0.8 2.4 0.0 12.6 0.00 0.00 46.0 83.4 11.1 3.0
9/29/22 - 2100 63.6 71 54.0 58.7 W | 268 0.3 2.8 0.0 12.6 0.00 0.00 46.0 83.4 11.1 3.0
9/29/22 - 2000 73.1 48 52.2 60.3 NW | 314 2.7 11.0 0.0 12.7 0.00 0.00 46.0 83.4 11.1 3.0
9/29/22 - 1900 76.6 43 52.7 61.4 WNW | 292 3.7 9.4 0.0 12.8 0.00 0.00 46.0 83.4 11.1 3.0
9/29/22 - 1800 81.1 36 51.5 61.7 WNW | 284 3.1 9.2 0.0 13.1 0.00 0.00 46.0 83.4 11.1 3.0
9/29/22 - 1700 82.4 31 48.3 60.3 W | 264 2.2 8.3 0.0 13.1 0.00 0.00 46.0 83.4 11.1 3.0
9/29/22 - 1600 81.9 34 51.1 61.6 SSE | 157 3.9 8.8 0.0 13.1 0.00 0.00 46.0 82.8 11.1 3.0
9/29/22 - 1500 80.8 37 52.2 62.0 SSE | 150 5.2 10.8 0.0 13.1 0.00 0.00 46.0 81.4 11.1 3.0
9/29/22 - 1400 79.1 41 53.2 62.2 SSE | 147 3.7 9.1 0.0 13.1 0.00 0.00 46.0 80.5 11.1 3.0
9/29/22 - 1300 76.9 43 52.8 61.5 SSE | 160 2.5 6.6 0.0 13.1 0.00 0.00 46.0 78.2 11.1 3.0
9/29/22 - 1200 72.7 50 53.2 60.8 SE | 145 2.1 5.3 0.0 13.1 0.00 0.00 46.0 75.4 11.1 3.0
9/29/22 - 1100 67.5 64 54.7 60.3 ESE | 109 2.0 6.0 0.0 13.2 0.00 0.00 46.0 70.3 11.1 3.0
Max 88.1 98 56.5 64.0 - 7.2 16.4 60.0 13.2 0.00 0.00 51.1 88.5 16.4 7.6
Avg 63.0 68 49.6 54.9 - 1.6 5.0 10.2 12.7 0.00 - - - - -
Min 42.5 22 41.7 42.4 - 0.0 0.7 0.0 12.4 0.00 0.00 41.9 48.7 1.2 0.0
Total - - - - - - - - - 0.00 - - - - -

Chilling & Growing Degree Days

Upper Lake

Daily Data | America/Los_Angeles
as of 10/6/22 10:32 AM PDT
Date Chilling <=45F (hrs) Chill Hrs 32-45F (hrs) Utah Chilling (Units) Chill Portions GDDs (DL) GDDs (Mx/Mn) Seas GDDs (DL) Seas GDDs (Smpl)
10/5/22 0.7 0.7 -5.0 0 15.1 16.5 2,975 2,864
10/4/22 0.1 0.1 -4.0 0 14.3 16.4 2,960 2,847
10/3/22 3.8 3.8 -2.0 0 13.4 13.6 2,946 2,831
10/2/22 0.2 0.2 -3.0 0 11.5 13.4 2,932 2,817
10/1/22 1.0 1.0 -3.5 0 14.4 15.7 2,921 2,804
9/30/22 0.3 0.3 -4.5 0 14.5 15.6 2,906 2,788
9/29/22 0.0 0.0 -6.5 0 14.1 14.7 2,892 2,772
Max 3.8 3.8 -2.0 0 15.1 16.5 - -
Avg 0.9 0.9 -4.1 0 13.9 15.1 - -
Min 0.0 0.0 -6.5 0 11.5 13.4 - -
Total 6.1 6.1 -28.5 - 97.4 105.9 - -
Calm: 0.0%

Upper Lake Climate Summary

Current Year

Current Year | Showing 1/1/22 - 10/5/22
as of 10/6/22 10:32 AM PDT
Temperature (°F) Max Wind Gust (mph) Precip (in) Days
Month Days Avg High Avg Low Max Min Avg Max Total Daily Min Temp < 28 Daily Min Temp < 32 Daily Max Temp > 90 Daily Max Temp > 100 Daily Rain > 0.01 Daily Rain > 0.1
Jan 2022 31 60.7 30.4 72.1 22.9 12.3 36.3 0.74 11 23 0 0 4 2
Feb 2022 28 66.3 28.5 80.5 17.1 14.6 31.9 1.81 14 21 0 0 3 3
Mar 2022 31 66.7 35.7 83.3 25.9 19.6 31.5 1.73 5 10 0 0 8 6
Apr 2022 30 65.1 37.5 88.1 29.7 21.9 38.5 2.43 0 2 0 0 7 7
May 2022 31 72.6 41.3 92.5 30.6 23.5 35.6 0.78 0 2 1 0 4 1
Jun 2022 30 84.1 48.4 101.7 39.8 20.5 30.4 1.05 0 0 9 1 3 3
Jul 2022 31 93 52.6 103.2 45.7 18.7 25.2 0.39 0 0 22 3 1 1
Aug 2022 31 94.6 52 102.6 44.7 16.9 24.6 0 0 0 24 3 0 0
Sep 2022 30 86.9 49.3 110 41.8 15.8 34.3 1.41 0 0 11 7 3 2
Oct 2022 5 86.2 44.1 88.5 41.9 13.2 16.4 0 0 0 0 0 0 0
Total 278 - - - - - - 10.34 30 58 67 14 33 25
Average 27.8 76.9 41.9 76.9 41.9 18.1 - 1.03 3 5.8 6.7 1.4 3.3 2.5
Maximum 31 94.6 52.6 110 - - 38.5 2.43 14 23 24 7 8 7
Minimum 5 60.7 28.5 - 17.1 - - 0 0 0 0 0 0 0

Upper Lake Climate Summary

Last Year

Last Year | Showing 1/1/21 - 12/31/21
as of 10/6/22 10:32 AM PDT
Temperature (°F) Max Wind Gust (mph) Precip (in) Days
Month Days Avg High Avg Low Max Min Avg Max Total Daily Min Temp < 28 Daily Min Temp < 32 Daily Max Temp > 90 Daily Max Temp > 100 Daily Rain > 0.01 Daily Rain > 0.1
Jan 2021 31 56 35.2 77 22.7 15.9 32.7 4.45 4 9 0 0 17 10
Feb 2021 28 60.1 33.3 74 27.7 18 30.5 2.42 3 15 0 0 10 8
Mar 2021 31 61 31.9 77.8 26.9 19.8 29.7 2.75 5 18 0 0 7 6
Apr 2021 30 73.7 36.7 86.5 31.4 21.7 27.2 0.1 0 1 0 0 1 0
May 2021 31 79.8 43.3 100.7 34.3 23.7 34.5 0.24 0 0 2 1 1 1
Jun 2021 30 88.8 50.9 106.4 37.8 21.4 36.6 2.35 0 0 15 5 4 3
Jul 2021 31 98 54.9 106 49.2 19.8 23.9 1.45 0 0 29 13 4 3
Aug 2021 31 96.7 53.1 106.2 45.4 19.7 32.9 0 0 0 28 10 0 0
Sep 2021 30 90 48 100.3 38.2 18.2 25.1 0.15 0 0 17 1 3 0
Oct 2021 31 71 42.1 93 31.5 17 30.8 2.55 0 1 4 0 10 9
Nov 2021 30 65.4 36.9 76.4 25.8 12 26 1.71 2 8 0 0 6 5
Dec 2021 31 51.7 33 78.3 24.9 14.4 30 7.8 8 17 0 0 16 13
Total 365 - - - - - - 25.97 22 69 95 30 79 58
Average 30.4 74.4 41.7 74.4 41.7 18.5 - 2.16 1.8 5.8 7.9 2.5 6.6 4.8
Maximum 31 98 54.9 106.4 - - 36.6 7.8 8 18 29 13 17 13
Minimum 28 51.7 31.9 - 22.7 - - 0 0 0 0 0 0 0

Climate Summary 2019

Upper Lake

1/1/2019 - 12/31/2019 | Showing 1/1/19 - 12/31/19
as of 10/6/22 10:32 AM PDT
Temperature (°F) Max Wind Gust (mph) Precip (in) Days
Month Days Avg High Avg Low Max Min Avg Max Total Daily Min Temp < 28 Daily Min Temp < 32 Daily Max Temp > 90 Daily Max Temp > 100 Daily Rain > 0.01 Daily Rain > 0.1
Jan 2019 31 57.8 36.4 71.8 24.8 13.7 26.4 9.44 3 9 0 0 11 11
Feb 2019 28 49.6 34 57.1 23 17.1 31 15.92 8 12 0 0 19 16
Mar 2019 31 59.4 37.1 74 27.9 14.7 26.8 6.68 1 4 0 0 15 11
Apr 2019 30 71.5 44.9 89.7 37.6 15 28.2 0.94 0 0 0 0 8 2
May 2019 31 73.7 44.5 86.5 35.8 14.6 20.2 3.63 0 0 0 0 9 5
Jun 2019 30 87.2 50.8 97 39.1 13.4 20.7 0.01 0 0 12 0 0 0
Jul 2019 31 89.9 53.2 97.5 47.9 13.4 17.4 0.03 0 0 17 0 1 0
Aug 2019 31 91.7 53.8 98.8 48 13.1 22.2 0.01 0 0 21 0 0 0
Sep 2019 30 83.1 46.8 97.4 33.5 13.6 25.8 0.24 0 0 11 0 3 1
Oct 2019 31 77 34.1 88.6 22.1 13.3 30.9 0.03 4 10 0 0 1 0
Nov 2019 30 69.8 32.5 82.9 23.7 12.4 37.9 1.66 6 15 0 0 3 3
Dec 2019 31 53.7 37.7 61.9 24 12.6 30.2 6.33 4 10 0 0 17 10
Total 365 - - - - - - 44.92 26 60 61 0 87 59
Average 30.4 72.2 42.2 72.2 42.2 13.9 - 3.74 2.2 5 5.1 0 7.2 4.9
Maximum 31 91.7 53.8 98.8 - - 37.9 15.92 8 15 21 0 19 16
Minimum 28 49.6 32.5 - 22.1 - - 0.01 0 0 0 0 0 0

Climate Summary 2018

Upper Lake

1/1/2018 - 12/31/2018 | Showing 1/1/18 - 12/31/18
as of 10/6/22 10:32 AM PDT
Temperature (°F) Max Wind Gust (mph) Precip (in) Days
Month Days Avg High Avg Low Max Min Avg Max Total Daily Min Temp < 28 Daily Min Temp < 32 Daily Max Temp > 90 Daily Max Temp > 100 Daily Rain > 0.01 Daily Rain > 0.1
Jan 2018 31 56.5 36.2 69.7 27.7 - - 5.62 2 8 0 0 13 9
Feb 2018 28 62.4 29.1 78.7 20.6 - - 0.9 13 19 0 0 3 2
Mar 2018 31 60.7 34 83.7 24.1 - - 5.7 3 11 0 0 16 13
Apr 2018 30 69 39.5 84.5 30.2 15.1 20.4 4.78 0 1 0 0 8 5
May 2018 31 77.9 45.3 92.1 35.3 14.7 25.2 0.26 0 0 1 0 2 1
Jun 2018 30 86.3 47.6 97.4 37.7 14.3 20.5 0 0 0 11 0 0 0
Jul 2018 31 95.2 53.2 103.1 46.2 13.1 18.5 0 0 0 24 4 0 0
Aug 2018 31 90.9 50.3 97.2 46.6 13.3 18.7 0 0 0 18 0 0 0
Sep 2018 30 86.7 44.5 96.2 39.5 13 18.8 0 0 0 12 0 0 0
Oct 2018 31 77.7 40.7 85.6 31.9 11.6 20.7 1.25 0 1 0 0 4 3
Nov 2018 30 66.4 32.5 82.4 20.4 10 18.6 5.43 13 15 0 0 7 7
Dec 2018 31 55.2 33.6 63.7 26.1 13 27.1 3.34 4 14 0 0 12 7
Total 365 - - - - - - 27.28 35 69 66 4 65 47
Average 30.4 73.8 40.6 73.8 40.6 13 - 2.27 2.9 5.8 5.5 0.3 5.4 3.9
Maximum 31 95.2 53.2 103.1 - - 27.1 5.7 13 19 24 4 16 13
Minimum 28 55.2 29.1 - 20.4 - - 0 0 0 0 0 0 0

Climate Summary 2017

Upper Lake

1/1/2017 - 12/31/2017 | Showing 1/1/17 - 12/31/17
as of 10/6/22 10:32 AM PDT
Temperature (°F) Max Wind Gust (mph) Precip (in) Days
Month Days Avg High Avg Low Max Min Avg Max Total Daily Min Temp < 28 Daily Min Temp < 32 Daily Max Temp > 90 Daily Max Temp > 100 Daily Rain > 0.01 Daily Rain > 0.1
Jan 2017 31 51.8 32.4 63.8 20.8 - - 16.02 10 17 0 0 16 14
Feb 2017 27 55.9 37.8 69.2 24.2 - - 10.98 4 8 0 0 16 14
Mar 2017 31 64.5 38.3 80.1 26.3 - - 3.42 2 3 0 0 10 8
Apr 2017 30 65.8 40.3 83.8 31.1 - - 4.03 0 2 0 0 12 7
May 2017 31 80.5 45 96.1 36.6 - - 0 0 0 5 0 0 0
Jun 2017 30 87.6 51.4 104.7 39.8 - - 0.21 0 0 12 6 1 1
Jul 2017 31 94.1 52.3 99.3 47.3 - - 0 0 0 28 0 0 0
Aug 2017 31 95 54.2 103.7 47.6 - - 0 0 0 29 4 0 0
Sep 2017 30 85.6 48.4 104.2 33.9 - - 0.01 0 0 8 3 0 0
Oct 2017 31 79.2 36.3 90.6 27.2 - - 0.37 1 5 1 0 1 1
Nov 2017 30 59.3 38.3 70.8 25.9 - - 5.32 2 7 0 0 13 8
Dec 2017 31 60.1 27.5 71.2 21.7 - - 0.13 19 30 0 0 2 0
Total 364 - - - - - - 40.49 38 72 83 13 71 53
Average 30.3 73.5 41.9 73.5 41.9 - - 3.37 3.2 6 6.9 1.1 5.9 4.4
Maximum 31 95 54.2 104.7 - - - 16.02 19 30 29 6 16 14
Minimum 27 51.8 27.5 - 20.8 - - 0 0 0 0 0 0 0

Climate Summary 2016

Upper Lake

1/1/2016 - 12/31/2016 | Showing 1/1/16 - 12/31/16
as of 10/6/22 10:32 AM PDT
Temperature (°F) Max Wind Gust (mph) Precip (in) Days
Month Days Avg High Avg Low Max Min Avg Max Total Daily Min Temp < 28 Daily Min Temp < 32 Daily Max Temp > 90 Daily Max Temp > 100 Daily Rain > 0.01 Daily Rain > 0.1
Jan 2016 31 52.2 38.2 63.8 20.4 - - 11.01 2 3 0 0 20 19
Feb 2016 29 66 36.2 79.5 29.8 - - 1.62 0 4 0 0 5 4
Mar 2016 31 62.5 38.9 77.5 30.1 - - 8.58 0 2 0 0 16 12
Apr 2016 30 71.2 40.1 85.2 32 - - 1.4 0 0 0 0 6 4
May 2016 31 77.7 45.9 96.8 39.9 - - 0.33 0 0 3 0 4 1
Jun 2016 30 87 48.5 99 42.7 - - 0.47 0 0 13 0 2 1
Jul 2016 31 91.9 50.2 102.3 42.3 - - 0 0 0 18 4 0 0
Aug 2016 31 93.4 49.3 99.5 42.9 - - 0 0 0 26 0 0 0
Sep 2016 30 87.7 44.5 97.4 38.2 - - 0 0 0 12 0 0 0
Oct 2016 31 68.7 43.5 87.2 34.3 - - 6.53 0 0 0 0 14 13
Nov 2016 30 62.6 37.8 76.1 27.3 - - 4.27 3 5 0 0 13 6
Dec 2016 31 53.5 29.6 65.6 19.9 - - 7.22 14 23 0 0 8 7
Total 366 - - - - - - 41.43 19 37 72 4 88 67
Average 30.5 72.9 41.9 72.9 41.9 - - 3.45 1.6 3.1 6 0.3 7.3 5.6
Maximum 31 93.4 50.2 102.3 - - - 11.01 14 23 26 4 20 19
Minimum 29 52.2 29.6 - 19.9 - - 0 0 0 0 0 0 0